sensor_id;sensor_type;location;lat;lon;timestamp;P1;durP1;ratioP1;P2;durP2;ratioP2
71806;SDS011;59655;42.590;23.364;2022-08-19T00:00:15;13.02;;;9.15;;
71806;SDS011;59655;42.590;23.364;2022-08-19T00:02:41;12.93;;;7.90;;
71806;SDS011;59655;42.590;23.364;2022-08-19T00:05:08;12.48;;;7.82;;
71806;SDS011;59655;42.590;23.364;2022-08-19T00:07:35;11.77;;;8.20;;
71806;SDS011;59655;42.590;23.364;2022-08-19T00:10:00;11.98;;;7.97;;
71806;SDS011;59655;42.590;23.364;2022-08-19T00:12:26;12.35;;;7.57;;
71806;SDS011;59655;42.590;23.364;2022-08-19T00:14:52;15.82;;;8.45;;
71806;SDS011;59655;42.590;23.364;2022-08-19T00:17:19;11.50;;;8.52;;
71806;SDS011;59655;42.590;23.364;2022-08-19T00:19:45;10.25;;;8.48;;
71806;SDS011;59655;42.590;23.364;2022-08-19T00:22:10;12.13;;;8.52;;
71806;SDS011;59655;42.590;23.364;2022-08-19T00:24:35;12.15;;;9.15;;
71806;SDS011;59655;42.590;23.364;2022-08-19T00:27:03;14.18;;;9.07;;
71806;SDS011;59655;42.590;23.364;2022-08-19T00:29:28;13.55;;;9.40;;
71806;SDS011;59655;42.590;23.364;2022-08-19T00:31:54;12.73;;;8.75;;
71806;SDS011;59655;42.590;23.364;2022-08-19T00:34:21;13.73;;;9.00;;
71806;SDS011;59655;42.590;23.364;2022-08-19T00:36:48;11.65;;;9.23;;
71806;SDS011;59655;42.590;23.364;2022-08-19T00:39:14;17.35;;;9.18;;
71806;SDS011;59655;42.590;23.364;2022-08-19T00:41:41;14.20;;;8.48;;
71806;SDS011;59655;42.590;23.364;2022-08-19T00:44:14;14.18;;;9.27;;
71806;SDS011;59655;42.590;23.364;2022-08-19T00:46:45;12.95;;;8.90;;
71806;SDS011;59655;42.590;23.364;2022-08-19T00:49:34;11.73;;;8.85;;
71806;SDS011;59655;42.590;23.364;2022-08-19T00:52:09;14.05;;;8.48;;
71806;SDS011;59655;42.590;23.364;2022-08-19T00:54:39;12.48;;;9.43;;
71806;SDS011;59655;42.590;23.364;2022-08-19T00:57:06;14.15;;;9.45;;
71806;SDS011;59655;42.590;23.364;2022-08-19T00:59:34;13.85;;;8.85;;
71806;SDS011;59655;42.590;23.364;2022-08-19T01:02:02;13.65;;;8.68;;
71806;SDS011;59655;42.590;23.364;2022-08-19T01:04:28;12.95;;;9.10;;
71806;SDS011;59655;42.590;23.364;2022-08-19T01:06:53;12.82;;;8.85;;
71806;SDS011;59655;42.590;23.364;2022-08-19T01:09:20;14.55;;;9.15;;
71806;SDS011;59655;42.590;23.364;2022-08-19T01:11:45;12.43;;;8.43;;
71806;SDS011;59655;42.590;23.364;2022-08-19T01:14:11;12.23;;;8.57;;
71806;SDS011;59655;42.590;23.364;2022-08-19T01:16:38;14.07;;;8.98;;
71806;SDS011;59655;42.590;23.364;2022-08-19T01:19:10;13.32;;;8.80;;
71806;SDS011;59655;42.590;23.364;2022-08-19T01:21:55;12.32;;;8.90;;
71806;SDS011;59655;42.590;23.364;2022-08-19T01:24:27;15.95;;;9.07;;
71806;SDS011;59655;42.590;23.364;2022-08-19T01:26:52;13.95;;;8.95;;
71806;SDS011;59655;42.590;23.364;2022-08-19T01:29:18;14.23;;;8.90;;
71806;SDS011;59655;42.590;23.364;2022-08-19T01:31:43;15.35;;;8.73;;
71806;SDS011;59655;42.590;23.364;2022-08-19T01:34:09;11.98;;;8.27;;
71806;SDS011;59655;42.590;23.364;2022-08-19T01:36:36;13.48;;;8.73;;
71806;SDS011;59655;42.590;23.364;2022-08-19T01:39:07;13.07;;;8.73;;
71806;SDS011;59655;42.590;23.364;2022-08-19T01:41:35;14.65;;;8.90;;
71806;SDS011;59655;42.590;23.364;2022-08-19T01:44:01;11.45;;;8.27;;
71806;SDS011;59655;42.590;23.364;2022-08-19T01:51:19;15.52;;;8.50;;
71806;SDS011;59655;42.590;23.364;2022-08-19T01:53:47;15.25;;;9.00;;
71806;SDS011;59655;42.590;23.364;2022-08-19T01:56:13;13.60;;;9.13;;
71806;SDS011;59655;42.590;23.364;2022-08-19T01:58:39;15.98;;;8.82;;
71806;SDS011;59655;42.590;23.364;2022-08-19T02:01:11;11.07;;;8.68;;
71806;SDS011;59655;42.590;23.364;2022-08-19T02:03:37;12.02;;;8.15;;
71806;SDS011;59655;42.590;23.364;2022-08-19T02:06:03;10.30;;;8.15;;
71806;SDS011;59655;42.590;23.364;2022-08-19T02:08:30;12.95;;;8.10;;
71806;SDS011;59655;42.590;23.364;2022-08-19T02:10:57;13.75;;;8.15;;
71806;SDS011;59655;42.590;23.364;2022-08-19T02:13:23;14.75;;;8.00;;
71806;SDS011;59655;42.590;23.364;2022-08-19T02:15:49;11.93;;;8.35;;
71806;SDS011;59655;42.590;23.364;2022-08-19T02:18:15;11.90;;;8.02;;
71806;SDS011;59655;42.590;23.364;2022-08-19T02:20:41;15.68;;;7.95;;
71806;SDS011;59655;42.590;23.364;2022-08-19T02:23:07;10.30;;;7.18;;
71806;SDS011;59655;42.590;23.364;2022-08-19T02:25:34;10.80;;;7.90;;
71806;SDS011;59655;42.590;23.364;2022-08-19T02:27:59;12.13;;;7.45;;
71806;SDS011;59655;42.590;23.364;2022-08-19T02:30:25;12.50;;;7.85;;
71806;SDS011;59655;42.590;23.364;2022-08-19T02:32:51;10.82;;;7.57;;
71806;SDS011;59655;42.590;23.364;2022-08-19T02:35:17;12.07;;;7.95;;
71806;SDS011;59655;42.590;23.364;2022-08-19T02:37:42;10.45;;;7.45;;
71806;SDS011;59655;42.590;23.364;2022-08-19T02:40:27;11.70;;;7.93;;
71806;SDS011;59655;42.590;23.364;2022-08-19T02:42:53;12.85;;;8.38;;
71806;SDS011;59655;42.590;23.364;2022-08-19T02:45:19;11.27;;;8.20;;
71806;SDS011;59655;42.590;23.364;2022-08-19T02:47:45;10.93;;;8.48;;
71806;SDS011;59655;42.590;23.364;2022-08-19T02:50:10;15.77;;;8.68;;
71806;SDS011;59655;42.590;23.364;2022-08-19T02:52:36;13.05;;;8.23;;
71806;SDS011;59655;42.590;23.364;2022-08-19T02:55:02;18.02;;;9.10;;
71806;SDS011;59655;42.590;23.364;2022-08-19T02:57:29;12.40;;;8.00;;
71806;SDS011;59655;42.590;23.364;2022-08-19T02:59:56;15.55;;;8.77;;
71806;SDS011;59655;42.590;23.364;2022-08-19T03:02:21;10.73;;;8.02;;
71806;SDS011;59655;42.590;23.364;2022-08-19T03:04:47;21.60;;;9.77;;
71806;SDS011;59655;42.590;23.364;2022-08-19T03:07:13;15.07;;;8.40;;
71806;SDS011;59655;42.590;23.364;2022-08-19T03:09:39;13.30;;;8.13;;
71806;SDS011;59655;42.590;23.364;2022-08-19T03:12:05;21.10;;;8.25;;
71806;SDS011;59655;42.590;23.364;2022-08-19T03:14:34;10.05;;;7.00;;
71806;SDS011;59655;42.590;23.364;2022-08-19T03:17:00;12.68;;;7.45;;
71806;SDS011;59655;42.590;23.364;2022-08-19T03:19:26;11.57;;;7.45;;
71806;SDS011;59655;42.590;23.364;2022-08-19T03:21:52;18.52;;;9.77;;
71806;SDS011;59655;42.590;23.364;2022-08-19T03:24:18;12.07;;;8.38;;
71806;SDS011;59655;42.590;23.364;2022-08-19T03:26:49;12.95;;;8.20;;
71806;SDS011;59655;42.590;23.364;2022-08-19T03:29:17;13.23;;;7.97;;
71806;SDS011;59655;42.590;23.364;2022-08-19T03:31:44;13.68;;;8.15;;
71806;SDS011;59655;42.590;23.364;2022-08-19T03:34:11;15.07;;;8.70;;
71806;SDS011;59655;42.590;23.364;2022-08-19T03:36:38;12.60;;;8.45;;
71806;SDS011;59655;42.590;23.364;2022-08-19T03:39:03;12.57;;;8.00;;
71806;SDS011;59655;42.590;23.364;2022-08-19T03:41:30;16.98;;;9.00;;
71806;SDS011;59655;42.590;23.364;2022-08-19T03:43:58;12.52;;;7.75;;
71806;SDS011;59655;42.590;23.364;2022-08-19T03:46:25;13.57;;;8.07;;
71806;SDS011;59655;42.590;23.364;2022-08-19T03:48:57;14.85;;;8.40;;
71806;SDS011;59655;42.590;23.364;2022-08-19T03:51:26;16.10;;;8.60;;
71806;SDS011;59655;42.590;23.364;2022-08-19T03:53:55;20.27;;;8.40;;
71806;SDS011;59655;42.590;23.364;2022-08-19T03:56:21;12.05;;;7.65;;
71806;SDS011;59655;42.590;23.364;2022-08-19T03:58:47;11.40;;;7.45;;
71806;SDS011;59655;42.590;23.364;2022-08-19T04:01:14;16.08;;;8.48;;
71806;SDS011;59655;42.590;23.364;2022-08-19T04:03:42;15.35;;;9.07;;
71806;SDS011;59655;42.590;23.364;2022-08-19T04:08:37;13.90;;;8.27;;
71806;SDS011;59655;42.590;23.364;2022-08-19T04:11:08;15.80;;;8.40;;
71806;SDS011;59655;42.590;23.364;2022-08-19T04:13:34;20.70;;;8.90;;
71806;SDS011;59655;42.590;23.364;2022-08-19T04:15:59;14.20;;;8.73;;
71806;SDS011;59655;42.590;23.364;2022-08-19T04:18:25;14.73;;;9.48;;
71806;SDS011;59655;42.590;23.364;2022-08-19T04:20:51;19.10;;;10.20;;
71806;SDS011;59655;42.590;23.364;2022-08-19T04:23:17;20.48;;;10.30;;
71806;SDS011;59655;42.590;23.364;2022-08-19T04:25:44;21.30;;;11.48;;
71806;SDS011;59655;42.590;23.364;2022-08-19T04:28:10;24.38;;;10.77;;
71806;SDS011;59655;42.590;23.364;2022-08-19T04:30:41;39.67;;;12.32;;
71806;SDS011;59655;42.590;23.364;2022-08-19T04:33:08;22.35;;;12.23;;
71806;SDS011;59655;42.590;23.364;2022-08-19T04:35:36;21.60;;;12.10;;
71806;SDS011;59655;42.590;23.364;2022-08-19T04:38:06;19.58;;;11.75;;
71806;SDS011;59655;42.590;23.364;2022-08-19T04:40:33;19.60;;;11.35;;
71806;SDS011;59655;42.590;23.364;2022-08-19T04:43:22;16.10;;;9.30;;
71806;SDS011;59655;42.590;23.364;2022-08-19T04:45:48;14.02;;;8.88;;
71806;SDS011;59655;42.590;23.364;2022-08-19T04:48:13;13.10;;;8.70;;
71806;SDS011;59655;42.590;23.364;2022-08-19T04:50:39;19.55;;;11.35;;
71806;SDS011;59655;42.590;23.364;2022-08-19T04:53:06;20.58;;;10.75;;
71806;SDS011;59655;42.590;23.364;2022-08-19T04:55:32;26.23;;;11.45;;
71806;SDS011;59655;42.590;23.364;2022-08-19T04:57:57;17.52;;;9.77;;
71806;SDS011;59655;42.590;23.364;2022-08-19T05:00:23;21.60;;;10.85;;
71806;SDS011;59655;42.590;23.364;2022-08-19T05:02:48;25.88;;;11.95;;
71806;SDS011;59655;42.590;23.364;2022-08-19T05:05:14;31.70;;;12.18;;
71806;SDS011;59655;42.590;23.364;2022-08-19T05:07:39;27.73;;;12.63;;
71806;SDS011;59655;42.590;23.364;2022-08-19T05:10:06;25.50;;;11.63;;
71806;SDS011;59655;42.590;23.364;2022-08-19T05:12:32;26.23;;;12.70;;
71806;SDS011;59655;42.590;23.364;2022-08-19T05:14:58;36.72;;;20.48;;
71806;SDS011;59655;42.590;23.364;2022-08-19T05:17:24;24.85;;;14.52;;
71806;SDS011;59655;42.590;23.364;2022-08-19T05:19:50;26.30;;;12.68;;
71806;SDS011;59655;42.590;23.364;2022-08-19T05:22:34;26.83;;;13.88;;
71806;SDS011;59655;42.590;23.364;2022-08-19T05:25:06;19.75;;;11.05;;
71806;SDS011;59655;42.590;23.364;2022-08-19T05:27:34;19.27;;;10.63;;
71806;SDS011;59655;42.590;23.364;2022-08-19T05:29:59;19.02;;;11.35;;
71806;SDS011;59655;42.590;23.364;2022-08-19T05:32:26;19.70;;;11.10;;
71806;SDS011;59655;42.590;23.364;2022-08-19T05:34:52;20.45;;;9.95;;
71806;SDS011;59655;42.590;23.364;2022-08-19T05:37:17;19.58;;;10.07;;
71806;SDS011;59655;42.590;23.364;2022-08-19T05:39:43;22.30;;;11.00;;
71806;SDS011;59655;42.590;23.364;2022-08-19T05:42:10;20.83;;;10.70;;
71806;SDS011;59655;42.590;23.364;2022-08-19T05:44:38;19.27;;;10.10;;
71806;SDS011;59655;42.590;23.364;2022-08-19T05:47:08;16.42;;;10.15;;
71806;SDS011;59655;42.590;23.364;2022-08-19T05:49:34;14.95;;;9.43;;
71806;SDS011;59655;42.590;23.364;2022-08-19T05:52:03;19.38;;;9.45;;
71806;SDS011;59655;42.590;23.364;2022-08-19T05:54:29;13.88;;;9.23;;
71806;SDS011;59655;42.590;23.364;2022-08-19T05:56:55;16.17;;;9.85;;
71806;SDS011;59655;42.590;23.364;2022-08-19T05:59:21;16.15;;;9.45;;
71806;SDS011;59655;42.590;23.364;2022-08-19T06:01:48;16.15;;;9.55;;
71806;SDS011;59655;42.590;23.364;2022-08-19T06:04:16;21.02;;;9.50;;
71806;SDS011;59655;42.590;23.364;2022-08-19T06:06:44;13.18;;;9.65;;
71806;SDS011;59655;42.590;23.364;2022-08-19T06:09:11;15.18;;;9.18;;
71806;SDS011;59655;42.590;23.364;2022-08-19T06:14:08;16.27;;;9.93;;
71806;SDS011;59655;42.590;23.364;2022-08-19T06:16:37;15.75;;;9.52;;
71806;SDS011;59655;42.590;23.364;2022-08-19T06:19:04;16.58;;;9.52;;
71806;SDS011;59655;42.590;23.364;2022-08-19T06:21:33;15.98;;;10.25;;
71806;SDS011;59655;42.590;23.364;2022-08-19T06:23:59;17.75;;;9.90;;
71806;SDS011;59655;42.590;23.364;2022-08-19T06:26:25;17.70;;;9.52;;
71806;SDS011;59655;42.590;23.364;2022-08-19T06:28:51;14.63;;;9.07;;
71806;SDS011;59655;42.590;23.364;2022-08-19T06:31:18;18.70;;;9.40;;
71806;SDS011;59655;42.590;23.364;2022-08-19T06:33:51;16.15;;;10.15;;
71806;SDS011;59655;42.590;23.364;2022-08-19T06:36:27;17.52;;;10.10;;
71806;SDS011;59655;42.590;23.364;2022-08-19T06:38:58;14.73;;;9.40;;
71806;SDS011;59655;42.590;23.364;2022-08-19T06:41:25;13.27;;;9.50;;
71806;SDS011;59655;42.590;23.364;2022-08-19T06:43:51;17.17;;;9.60;;
71806;SDS011;59655;42.590;23.364;2022-08-19T06:46:17;16.95;;;10.25;;
71806;SDS011;59655;42.590;23.364;2022-08-19T06:48:44;15.27;;;10.63;;
71806;SDS011;59655;42.590;23.364;2022-08-19T06:51:11;17.35;;;11.00;;
71806;SDS011;59655;42.590;23.364;2022-08-19T06:53:40;18.63;;;10.20;;
71806;SDS011;59655;42.590;23.364;2022-08-19T06:56:10;19.42;;;11.70;;
71806;SDS011;59655;42.590;23.364;2022-08-19T06:58:36;14.98;;;10.20;;
71806;SDS011;59655;42.590;23.364;2022-08-19T07:01:02;16.65;;;10.63;;
71806;SDS011;59655;42.590;23.364;2022-08-19T07:03:31;16.20;;;10.45;;
71806;SDS011;59655;42.590;23.364;2022-08-19T07:06:05;14.80;;;10.15;;
71806;SDS011;59655;42.590;23.364;2022-08-19T07:08:33;18.10;;;11.52;;
71806;SDS011;59655;42.590;23.364;2022-08-19T07:11:01;16.73;;;10.90;;
71806;SDS011;59655;42.590;23.364;2022-08-19T07:13:27;19.88;;;10.57;;
71806;SDS011;59655;42.590;23.364;2022-08-19T07:15:52;16.52;;;10.73;;
71806;SDS011;59655;42.590;23.364;2022-08-19T07:18:18;20.73;;;12.77;;
71806;SDS011;59655;42.590;23.364;2022-08-19T07:20:46;18.65;;;11.88;;
71806;SDS011;59655;42.590;23.364;2022-08-19T07:23:13;17.95;;;12.00;;
71806;SDS011;59655;42.590;23.364;2022-08-19T07:25:38;20.63;;;12.15;;
71806;SDS011;59655;42.590;23.364;2022-08-19T07:28:04;22.02;;;12.90;;
71806;SDS011;59655;42.590;23.364;2022-08-19T07:30:35;18.92;;;13.20;;
71806;SDS011;59655;42.590;23.364;2022-08-19T07:33:02;23.85;;;13.35;;
71806;SDS011;59655;42.590;23.364;2022-08-19T07:35:28;18.17;;;10.80;;
71806;SDS011;59655;42.590;23.364;2022-08-19T07:37:53;17.52;;;12.60;;
71806;SDS011;59655;42.590;23.364;2022-08-19T07:40:19;17.52;;;11.77;;
71806;SDS011;59655;42.590;23.364;2022-08-19T07:42:44;19.65;;;12.80;;
71806;SDS011;59655;42.590;23.364;2022-08-19T07:45:10;18.27;;;10.85;;
71806;SDS011;59655;42.590;23.364;2022-08-19T07:47:35;19.58;;;11.07;;
71806;SDS011;59655;42.590;23.364;2022-08-19T07:50:01;15.18;;;11.73;;
71806;SDS011;59655;42.590;23.364;2022-08-19T07:52:29;17.52;;;12.07;;
71806;SDS011;59655;42.590;23.364;2022-08-19T07:54:55;19.67;;;12.05;;
71806;SDS011;59655;42.590;23.364;2022-08-19T07:57:20;15.82;;;11.07;;
71806;SDS011;59655;42.590;23.364;2022-08-19T07:59:45;15.90;;;11.73;;
71806;SDS011;59655;42.590;23.364;2022-08-19T08:02:11;13.52;;;10.82;;
71806;SDS011;59655;42.590;23.364;2022-08-19T08:04:36;20.38;;;11.27;;
71806;SDS011;59655;42.590;23.364;2022-08-19T08:07:20;26.50;;;12.15;;
71806;SDS011;59655;42.590;23.364;2022-08-19T08:10:05;21.40;;;11.98;;
71806;SDS011;59655;42.590;23.364;2022-08-19T08:15:00;14.98;;;9.85;;
71806;SDS011;59655;42.590;23.364;2022-08-19T08:17:29;22.95;;;10.70;;
71806;SDS011;59655;42.590;23.364;2022-08-19T08:19:55;19.90;;;11.02;;
71806;SDS011;59655;42.590;23.364;2022-08-19T08:22:22;16.70;;;11.18;;
71806;SDS011;59655;42.590;23.364;2022-08-19T08:25:12;15.05;;;10.32;;
71806;SDS011;59655;42.590;23.364;2022-08-19T08:27:41;19.20;;;10.95;;
71806;SDS011;59655;42.590;23.364;2022-08-19T08:30:09;20.75;;;9.60;;
71806;SDS011;59655;42.590;23.364;2022-08-19T08:32:37;24.90;;;10.15;;
71806;SDS011;59655;42.590;23.364;2022-08-19T08:35:05;30.02;;;10.27;;
71806;SDS011;59655;42.590;23.364;2022-08-19T08:37:32;22.55;;;9.57;;
71806;SDS011;59655;42.590;23.364;2022-08-19T08:39:58;17.15;;;10.15;;
71806;SDS011;59655;42.590;23.364;2022-08-19T08:42:34;25.02;;;10.77;;
71806;SDS011;59655;42.590;23.364;2022-08-19T08:45:12;21.98;;;9.80;;
71806;SDS011;59655;42.590;23.364;2022-08-19T08:47:41;18.67;;;8.98;;
71806;SDS011;59655;42.590;23.364;2022-08-19T08:50:16;15.15;;;9.68;;
71806;SDS011;59655;42.590;23.364;2022-08-19T08:53:01;21.90;;;9.80;;
71806;SDS011;59655;42.590;23.364;2022-08-19T08:55:29;14.95;;;9.00;;
71806;SDS011;59655;42.590;23.364;2022-08-19T09:00:39;15.02;;;8.50;;
71806;SDS011;59655;42.590;23.364;2022-08-19T09:03:09;26.25;;;9.27;;
71806;SDS011;59655;42.590;23.364;2022-08-19T09:11:50;14.02;;;8.93;;
71806;SDS011;59655;42.590;23.364;2022-08-19T09:17:06;15.75;;;8.43;;
71806;SDS011;59655;42.590;23.364;2022-08-19T09:19:57;12.50;;;8.10;;
71806;SDS011;59655;42.590;23.364;2022-08-19T09:22:37;12.75;;;7.43;;
71806;SDS011;59655;42.590;23.364;2022-08-19T09:25:05;15.40;;;8.95;;
71806;SDS011;59655;42.590;23.364;2022-08-19T09:27:32;13.07;;;8.93;;
71806;SDS011;59655;42.590;23.364;2022-08-19T09:29:58;12.27;;;8.88;;
71806;SDS011;59655;42.590;23.364;2022-08-19T09:32:24;16.85;;;9.27;;
71806;SDS011;59655;42.590;23.364;2022-08-19T09:34:51;13.20;;;8.60;;
71806;SDS011;59655;42.590;23.364;2022-08-19T09:37:19;13.15;;;8.75;;
71806;SDS011;59655;42.590;23.364;2022-08-19T09:39:45;18.25;;;8.57;;
71806;SDS011;59655;42.590;23.364;2022-08-19T09:42:10;23.30;;;8.80;;
71806;SDS011;59655;42.590;23.364;2022-08-19T09:44:39;14.32;;;8.73;;
71806;SDS011;59655;42.590;23.364;2022-08-19T09:47:05;11.13;;;7.40;;
71806;SDS011;59655;42.590;23.364;2022-08-19T09:49:31;15.05;;;8.27;;
71806;SDS011;59655;42.590;23.364;2022-08-19T09:51:57;17.92;;;7.93;;
71806;SDS011;59655;42.590;23.364;2022-08-19T09:54:23;21.00;;;8.93;;
71806;SDS011;59655;42.590;23.364;2022-08-19T09:56:49;15.98;;;8.65;;
71806;SDS011;59655;42.590;23.364;2022-08-19T09:59:15;18.85;;;8.90;;
71806;SDS011;59655;42.590;23.364;2022-08-19T10:01:41;15.25;;;8.32;;
71806;SDS011;59655;42.590;23.364;2022-08-19T10:04:06;20.48;;;8.93;;
71806;SDS011;59655;42.590;23.364;2022-08-19T10:06:35;15.73;;;8.13;;
71806;SDS011;59655;42.590;23.364;2022-08-19T10:09:03;15.20;;;8.82;;
71806;SDS011;59655;42.590;23.364;2022-08-19T10:11:31;16.10;;;9.05;;
71806;SDS011;59655;42.590;23.364;2022-08-19T10:13:57;19.95;;;8.93;;
71806;SDS011;59655;42.590;23.364;2022-08-19T10:16:24;19.52;;;9.15;;
71806;SDS011;59655;42.590;23.364;2022-08-19T10:18:50;15.60;;;8.70;;
71806;SDS011;59655;42.590;23.364;2022-08-19T10:21:21;18.27;;;9.35;;
71806;SDS011;59655;42.590;23.364;2022-08-19T10:23:49;13.60;;;8.88;;
71806;SDS011;59655;42.590;23.364;2022-08-19T10:28:42;15.75;;;8.65;;
71806;SDS011;59655;42.590;23.364;2022-08-19T10:31:09;13.85;;;8.60;;
71806;SDS011;59655;42.590;23.364;2022-08-19T10:33:37;16.25;;;8.60;;
71806;SDS011;59655;42.590;23.364;2022-08-19T10:36:04;11.85;;;8.30;;
71806;SDS011;59655;42.590;23.364;2022-08-19T10:38:35;13.95;;;8.55;;
71806;SDS011;59655;42.590;23.364;2022-08-19T10:41:10;14.68;;;8.90;;
71806;SDS011;59655;42.590;23.364;2022-08-19T10:43:37;23.35;;;8.82;;
71806;SDS011;59655;42.590;23.364;2022-08-19T10:46:05;14.57;;;8.40;;
71806;SDS011;59655;42.590;23.364;2022-08-19T10:48:32;19.83;;;9.27;;
71806;SDS011;59655;42.590;23.364;2022-08-19T10:50:58;11.90;;;8.55;;
71806;SDS011;59655;42.590;23.364;2022-08-19T10:53:41;17.23;;;8.38;;
71806;SDS011;59655;42.590;23.364;2022-08-19T10:56:07;23.75;;;8.93;;
71806;SDS011;59655;42.590;23.364;2022-08-19T10:58:51;17.73;;;8.60;;
71806;SDS011;59655;42.590;23.364;2022-08-19T11:01:17;19.08;;;8.77;;
71806;SDS011;59655;42.590;23.364;2022-08-19T11:03:43;17.15;;;8.45;;
71806;SDS011;59655;42.590;23.364;2022-08-19T11:06:10;14.55;;;8.65;;
71806;SDS011;59655;42.590;23.364;2022-08-19T11:08:36;17.10;;;8.80;;
71806;SDS011;59655;42.590;23.364;2022-08-19T11:11:02;15.13;;;8.25;;
71806;SDS011;59655;42.590;23.364;2022-08-19T11:16:00;19.83;;;8.00;;
71806;SDS011;59655;42.590;23.364;2022-08-19T11:18:31;18.20;;;8.68;;
71806;SDS011;59655;42.590;23.364;2022-08-19T11:21:11;15.88;;;8.85;;
71806;SDS011;59655;42.590;23.364;2022-08-19T11:23:50;15.30;;;8.27;;
71806;SDS011;59655;42.590;23.364;2022-08-19T11:26:18;17.48;;;9.13;;
71806;SDS011;59655;42.590;23.364;2022-08-19T11:28:44;15.55;;;8.57;;
71806;SDS011;59655;42.590;23.364;2022-08-19T11:31:11;18.70;;;9.38;;
71806;SDS011;59655;42.590;23.364;2022-08-19T11:33:38;17.95;;;8.30;;
71806;SDS011;59655;42.590;23.364;2022-08-19T11:36:04;18.25;;;9.75;;
71806;SDS011;59655;42.590;23.364;2022-08-19T11:38:30;14.02;;;8.23;;
71806;SDS011;59655;42.590;23.364;2022-08-19T11:40:59;17.17;;;8.43;;
71806;SDS011;59655;42.590;23.364;2022-08-19T11:43:26;14.75;;;8.63;;
71806;SDS011;59655;42.590;23.364;2022-08-19T11:45:53;17.38;;;8.60;;
71806;SDS011;59655;42.590;23.364;2022-08-19T11:48:20;17.90;;;8.65;;
71806;SDS011;59655;42.590;23.364;2022-08-19T11:50:49;14.35;;;8.57;;
71806;SDS011;59655;42.590;23.364;2022-08-19T11:53:16;16.45;;;9.25;;
71806;SDS011;59655;42.590;23.364;2022-08-19T11:55:44;15.48;;;8.98;;
71806;SDS011;59655;42.590;23.364;2022-08-19T11:58:10;16.90;;;8.93;;
71806;SDS011;59655;42.590;23.364;2022-08-19T12:00:37;15.95;;;9.25;;
71806;SDS011;59655;42.590;23.364;2022-08-19T12:03:03;16.85;;;9.52;;
71806;SDS011;59655;42.590;23.364;2022-08-19T12:05:28;16.67;;;8.82;;
71806;SDS011;59655;42.590;23.364;2022-08-19T12:07:54;15.75;;;8.77;;
71806;SDS011;59655;42.590;23.364;2022-08-19T12:10:20;13.82;;;9.07;;
71806;SDS011;59655;42.590;23.364;2022-08-19T12:12:46;16.85;;;9.55;;
71806;SDS011;59655;42.590;23.364;2022-08-19T12:15:12;14.73;;;9.18;;
71806;SDS011;59655;42.590;23.364;2022-08-19T12:17:39;16.17;;;9.45;;
71806;SDS011;59655;42.590;23.364;2022-08-19T12:20:06;16.83;;;9.55;;
71806;SDS011;59655;42.590;23.364;2022-08-19T12:22:34;14.52;;;9.05;;
71806;SDS011;59655;42.590;23.364;2022-08-19T12:25:00;14.52;;;9.38;;
71806;SDS011;59655;42.590;23.364;2022-08-19T12:27:26;14.85;;;8.93;;
71806;SDS011;59655;42.590;23.364;2022-08-19T12:29:51;19.45;;;9.60;;
71806;SDS011;59655;42.590;23.364;2022-08-19T12:32:17;18.50;;;9.80;;
71806;SDS011;59655;42.590;23.364;2022-08-19T12:34:42;18.52;;;9.50;;
71806;SDS011;59655;42.590;23.364;2022-08-19T12:37:08;14.80;;;9.82;;
71806;SDS011;59655;42.590;23.364;2022-08-19T12:39:34;15.57;;;8.88;;
71806;SDS011;59655;42.590;23.364;2022-08-19T12:42:01;15.82;;;8.82;;
71806;SDS011;59655;42.590;23.364;2022-08-19T12:44:27;17.15;;;9.10;;
71806;SDS011;59655;42.590;23.364;2022-08-19T12:46:54;14.27;;;9.27;;
71806;SDS011;59655;42.590;23.364;2022-08-19T12:49:19;14.52;;;9.07;;
71806;SDS011;59655;42.590;23.364;2022-08-19T12:51:44;17.33;;;9.23;;
71806;SDS011;59655;42.590;23.364;2022-08-19T12:54:11;12.93;;;8.93;;
71806;SDS011;59655;42.590;23.364;2022-08-19T12:56:36;15.98;;;9.40;;
71806;SDS011;59655;42.590;23.364;2022-08-19T12:59:02;17.33;;;8.65;;
71806;SDS011;59655;42.590;23.364;2022-08-19T13:01:29;16.70;;;9.05;;
71806;SDS011;59655;42.590;23.364;2022-08-19T13:03:57;15.65;;;10.15;;
71806;SDS011;59655;42.590;23.364;2022-08-19T13:06:23;16.27;;;9.40;;
71806;SDS011;59655;42.590;23.364;2022-08-19T13:08:48;19.55;;;9.85;;
71806;SDS011;59655;42.590;23.364;2022-08-19T13:11:15;21.02;;;9.27;;
71806;SDS011;59655;42.590;23.364;2022-08-19T13:13:43;20.48;;;9.43;;
71806;SDS011;59655;42.590;23.364;2022-08-19T13:16:10;22.60;;;10.20;;
71806;SDS011;59655;42.590;23.364;2022-08-19T13:18:37;13.13;;;8.90;;
71806;SDS011;59655;42.590;23.364;2022-08-19T13:21:04;17.40;;;9.60;;
71806;SDS011;59655;42.590;23.364;2022-08-19T13:23:31;13.25;;;9.30;;
71806;SDS011;59655;42.590;23.364;2022-08-19T13:25:57;15.00;;;9.40;;
71806;SDS011;59655;42.590;23.364;2022-08-19T13:28:24;10.93;;;8.90;;
71806;SDS011;59655;42.590;23.364;2022-08-19T13:30:49;15.07;;;9.10;;
71806;SDS011;59655;42.590;23.364;2022-08-19T13:33:33;18.13;;;9.23;;
71806;SDS011;59655;42.590;23.364;2022-08-19T13:36:00;26.77;;;8.90;;
71806;SDS011;59655;42.590;23.364;2022-08-19T13:38:26;11.95;;;8.75;;
71806;SDS011;59655;42.590;23.364;2022-08-19T13:40:53;13.75;;;8.82;;
71806;SDS011;59655;42.590;23.364;2022-08-19T13:43:20;17.67;;;9.15;;
71806;SDS011;59655;42.590;23.364;2022-08-19T13:45:48;14.35;;;9.15;;
71806;SDS011;59655;42.590;23.364;2022-08-19T13:48:15;13.88;;;8.85;;
71806;SDS011;59655;42.590;23.364;2022-08-19T13:50:42;14.60;;;8.88;;
71806;SDS011;59655;42.590;23.364;2022-08-19T13:53:09;14.88;;;8.60;;
71806;SDS011;59655;42.590;23.364;2022-08-19T13:55:40;15.75;;;9.02;;
71806;SDS011;59655;42.590;23.364;2022-08-19T13:58:07;19.83;;;9.82;;
71806;SDS011;59655;42.590;23.364;2022-08-19T14:00:35;13.77;;;9.75;;
71806;SDS011;59655;42.590;23.364;2022-08-19T14:03:03;13.88;;;9.88;;
71806;SDS011;59655;42.590;23.364;2022-08-19T14:05:29;17.05;;;8.85;;
71806;SDS011;59655;42.590;23.364;2022-08-19T14:07:55;17.35;;;9.13;;
71806;SDS011;59655;42.590;23.364;2022-08-19T14:10:21;14.98;;;9.52;;
71806;SDS011;59655;42.590;23.364;2022-08-19T14:12:52;14.30;;;8.73;;
71806;SDS011;59655;42.590;23.364;2022-08-19T14:15:20;14.45;;;9.52;;
71806;SDS011;59655;42.590;23.364;2022-08-19T14:17:46;17.73;;;9.65;;
71806;SDS011;59655;42.590;23.364;2022-08-19T14:22:41;17.52;;;9.40;;
71806;SDS011;59655;42.590;23.364;2022-08-19T14:25:08;15.57;;;8.55;;
71806;SDS011;59655;42.590;23.364;2022-08-19T14:27:36;13.85;;;9.00;;
71806;SDS011;59655;42.590;23.364;2022-08-19T14:30:03;19.15;;;9.75;;
71806;SDS011;59655;42.590;23.364;2022-08-19T14:32:29;16.35;;;9.25;;
71806;SDS011;59655;42.590;23.364;2022-08-19T14:34:55;18.90;;;9.40;;
71806;SDS011;59655;42.590;23.364;2022-08-19T14:37:20;14.20;;;9.20;;
71806;SDS011;59655;42.590;23.364;2022-08-19T14:39:47;14.98;;;8.68;;
71806;SDS011;59655;42.590;23.364;2022-08-19T14:42:12;18.05;;;9.57;;
71806;SDS011;59655;42.590;23.364;2022-08-19T14:44:39;21.95;;;8.75;;
71806;SDS011;59655;42.590;23.364;2022-08-19T14:47:05;15.85;;;8.25;;
71806;SDS011;59655;42.590;23.364;2022-08-19T14:49:31;15.60;;;9.38;;
71806;SDS011;59655;42.590;23.364;2022-08-19T14:51:57;15.43;;;8.98;;